GVAC Airport Information

Runway Information
Runway 01 Length 10735 ft width 148 ft
Elevation 176 ft Threshold 885 ft Heading 358
Runway 19 Length 10735 ft Width 148 ft
Elevation 170 ft Threshold 0 ft Heading 178
Runway 07 Length 4921 ft width 148 ft
Elevation 177 ft Threshold 0 ft Heading 58
Runway 25 Length 4921 ft Width 148 ft
Elevation 177 ft Threshold 0 ft Heading 238
Airport Frequencies
Type A/G Name A/G Frequency 345.2 MHZ
Type APP Name SAL APP Frequency 119.7 MHZ
Type TWR Name TWR Frequency 119.7 MHZ
Airport Navaids
Type VOR-DME Name Sal Frequency 115300 KHZ
Type NDB Name Sal Frequency 274 KHZ
Airport Weather Information & NOTAM
ADDS - METARS form results

(1127 UTC 17 July 2018)
 
METAR text: GVAC 171100Z 05015KT 9999 BKN014 26/19 Q1014 NOSIG
Conditions at: GVAC (SAL ISL/AMILCAR , CV) observed 1100 UTC 17 July 2018
Temperature: 26.0°C (79°F)
Dewpoint: 19.0°C (66°F) [RH = 65%]
Pressure (altimeter): 29.94 inches Hg (1014.0 mb)
Winds: from the NE (50 degrees) at 17 MPH (15 knots; 7.8 m/s)
Visibility: 6 or more miles (10+ km)
Ceiling: 1400 feet AGL
Clouds: broken clouds at 1400 feet AGL
Weather: no significant weather observed at this time